createdAt,value
2023-01-09T00:05:44.634Z,5.04
2023-01-09T00:18:03.364Z,5.06
2023-01-09T00:19:37.553Z,5.05
2023-01-09T00:21:11.873Z,5.05
2023-01-09T00:22:46.236Z,5.05
2023-01-09T00:24:13.204Z,5.06
2023-01-09T00:25:56.147Z,5.07
2023-01-09T01:13:00.548Z,5.19
2023-01-09T01:14:33.213Z,5.17
2023-01-09T01:16:06.098Z,5.17
2023-01-09T01:17:38.775Z,5.17
2023-01-09T01:19:13.041Z,5.17
2023-01-09T01:20:46.820Z,5.17
2023-01-09T01:22:10.398Z,5.17
2023-01-09T01:28:45.125Z,5.21
2023-01-09T01:30:17.627Z,5.20
2023-01-09T01:31:50.319Z,5.21
2023-01-09T01:33:23.097Z,5.21
2023-01-09T01:34:56.894Z,5.22
2023-01-09T01:44:34.477Z,5.30
2023-01-09T01:46:10.284Z,5.30
2023-01-09T01:47:46.814Z,5.30
2023-01-09T01:49:19.435Z,5.32
2023-01-09T01:51:07.168Z,5.33
2023-01-09T01:52:42.856Z,5.33
2023-01-09T01:54:15.492Z,5.36
2023-01-09T01:55:48.606Z,5.37
2023-01-09T01:57:21.448Z,5.38
2023-01-09T02:13:04.110Z,5.45
2023-01-09T02:14:38.379Z,5.44
2023-01-09T02:16:14.036Z,5.43
2023-01-09T02:17:53.075Z,5.43
2023-01-09T02:19:51.194Z,5.42
2023-01-09T02:21:31.950Z,5.42
2023-01-09T02:23:15.932Z,5.41
2023-01-09T02:25:02.031Z,5.41
2023-01-09T02:26:47.041Z,5.39
2023-01-09T02:28:42.526Z,5.39
2023-01-09T02:30:17.373Z,5.38
2023-01-09T02:31:55.831Z,5.39
2023-01-09T02:35:26.683Z,5.38
2023-01-09T02:37:29.455Z,5.41
2023-01-09T02:39:04.940Z,5.39
2023-01-09T02:40:49.700Z,5.39
2023-01-09T02:42:28.339Z,5.38
2023-01-09T02:44:01.043Z,5.39
2023-01-09T02:45:35.187Z,5.40
2023-01-09T02:47:13.877Z,5.40
2023-01-09T02:48:46.627Z,5.40
2023-01-09T02:50:20.248Z,5.40
2023-01-09T02:53:40.740Z,5.41
2023-01-09T02:54:56.160Z,5.41
2023-01-09T02:56:32.004Z,5.40
2023-01-09T02:58:23.389Z,5.39
2023-01-09T03:00:06.887Z,5.41
2023-01-09T03:01:20.637Z,5.41
2023-01-09T03:02:55.154Z,5.41
2023-01-09T03:04:50.787Z,5.41
2023-01-09T03:14:11.416Z,5.46
2023-01-09T03:15:45.590Z,5.45
2023-01-09T03:17:08.400Z,5.45
2023-01-09T03:18:35.576Z,5.46
2023-01-09T03:19:58.507Z,5.46
2023-01-09T03:32:50.579Z,5.45
2023-01-09T03:34:23.334Z,5.43
2023-01-09T03:35:55.980Z,5.42
2023-01-09T03:37:28.832Z,5.42
2023-01-09T03:38:41.522Z,5.42
2023-01-09T03:49:40.766Z,5.45
2023-01-09T03:51:13.359Z,5.43
2023-01-09T03:52:46.078Z,5.41
2023-01-09T03:54:19.161Z,5.40
2023-01-09T03:55:53.011Z,5.40
2023-01-09T03:57:26.953Z,5.40
2023-01-09T04:06:48.263Z,5.33
2023-01-09T04:08:22.411Z,5.29
2023-01-09T04:09:56.678Z,5.23
2023-01-09T04:11:30.863Z,5.16
2023-01-09T04:13:06.390Z,5.10
2023-01-09T04:25:48.202Z,4.78
2023-01-09T04:27:20.744Z,4.76
2023-01-09T04:28:53.455Z,4.75
2023-01-09T04:30:16.193Z,4.75
2023-01-09T04:31:49.945Z,4.76
2023-01-09T04:33:23.911Z,4.78
2023-01-09T04:41:30.012Z,4.86
2023-01-09T04:43:02.649Z,4.85
2023-01-09T04:44:15.264Z,4.86
2023-01-09T04:45:48.235Z,4.86
2023-01-09T04:47:21.252Z,4.85
2023-01-09T04:48:55.525Z,4.86
2023-01-09T04:50:31.283Z,4.85
2023-01-09T04:52:06.425Z,4.83
2023-01-09T04:53:40.827Z,4.82
2023-01-09T04:55:15.047Z,4.82
2023-01-09T04:56:52.900Z,4.81
2023-01-09T04:59:58.739Z,4.82
2023-01-09T05:07:46.626Z,4.82
2023-01-09T05:09:20.852Z,4.82
2023-01-09T05:10:54.902Z,4.81
2023-01-09T05:12:29.952Z,4.81
2023-01-09T05:14:04.438Z,4.80
2023-01-09T05:15:39.779Z,4.80
2023-01-09T05:18:53.974Z,4.81
2023-01-09T05:20:28.135Z,4.81
2023-01-09T05:21:55.322Z,4.81
2023-01-09T05:35:19.757Z,4.79
2023-01-09T05:36:53.761Z,4.79
2023-01-09T05:38:28.234Z,4.78
2023-01-09T05:40:03.942Z,4.78
2023-01-09T05:41:41.120Z,4.78
2023-01-09T05:45:19.209Z,4.82
2023-01-09T05:46:32.322Z,4.80
2023-01-09T05:47:44.782Z,4.78
2023-01-09T05:48:57.331Z,4.78
2023-01-09T05:50:09.999Z,4.79
2023-01-09T05:51:22.560Z,4.79
2023-01-09T05:52:35.001Z,4.80
2023-01-09T05:53:47.693Z,4.81
2023-01-09T05:54:59.949Z,4.81
2023-01-09T05:56:12.634Z,4.81
2023-01-09T05:57:24.996Z,4.82
2023-01-09T05:58:32.364Z,4.82
2023-01-09T05:59:44.836Z,4.83
2023-01-09T06:00:57.442Z,4.84
2023-01-09T06:02:10.008Z,4.84
2023-01-09T06:03:22.448Z,4.82
2023-01-09T06:04:35.073Z,4.82
2023-01-09T06:05:47.901Z,4.82
2023-01-09T06:07:00.272Z,4.84
2023-01-09T06:08:12.870Z,4.84
2023-01-09T06:09:25.121Z,4.85
2023-01-09T06:10:37.536Z,4.86
2023-01-09T06:11:49.046Z,4.86
2023-01-09T06:13:01.361Z,4.85
2023-01-09T06:14:13.987Z,4.86
2023-01-09T06:15:26.610Z,4.86
2023-01-09T06:16:39.007Z,4.88
2023-01-09T06:17:51.494Z,4.88
2023-01-09T06:18:53.818Z,4.90
2023-01-09T06:20:06.361Z,4.91
2023-01-09T06:21:18.793Z,4.92
2023-01-09T06:22:31.202Z,4.92
2023-01-09T06:23:43.732Z,4.94
2023-01-09T06:24:56.248Z,4.94
2023-01-09T06:26:08.690Z,4.95
2023-01-09T06:27:21.286Z,4.96
2023-01-09T06:28:33.704Z,4.96
2023-01-09T06:29:47.128Z,4.96
2023-01-09T06:30:59.507Z,4.95
2023-01-09T06:32:12.050Z,4.94
2023-01-09T06:33:24.562Z,4.93
2023-01-09T06:34:25.841Z,4.92
2023-01-09T06:35:28.695Z,4.91
2023-01-09T06:36:41.237Z,4.89
2023-01-09T06:37:53.566Z,4.89
2023-01-09T06:39:07.042Z,4.88
2023-01-09T06:40:19.477Z,4.88
2023-01-09T06:41:31.929Z,4.88
2023-01-09T06:42:44.379Z,4.86
2023-01-09T06:43:56.749Z,4.86
2023-01-09T06:45:09.204Z,4.87
2023-01-09T06:46:21.875Z,4.88
2023-01-09T06:47:34.319Z,4.89
2023-01-09T06:48:46.835Z,4.90
2023-01-09T06:49:59.164Z,4.91
2023-01-09T06:51:11.699Z,4.94
2023-01-09T06:52:16.868Z,4.95
2023-01-09T06:53:29.362Z,4.96
2023-01-09T06:54:41.715Z,4.98
2023-01-09T06:55:54.262Z,4.98
2023-01-09T06:57:06.631Z,4.99
2023-01-09T06:58:19.165Z,5.00
2023-01-09T06:59:31.453Z,5.01
2023-01-09T07:00:44.086Z,5.02
2023-01-09T07:01:56.600Z,5.04
2023-01-09T07:03:10.140Z,5.05
2023-01-09T07:04:22.594Z,5.03
2023-01-09T07:05:24.049Z,5.05
2023-01-09T07:06:36.580Z,5.06
2023-01-09T07:07:32.403Z,5.08
2023-01-09T07:08:45.305Z,5.10
2023-01-09T07:09:59.158Z,5.09
2023-01-09T07:11:11.657Z,5.09
2023-01-09T07:12:24.062Z,5.11
2023-01-09T07:13:36.550Z,5.12
2023-01-09T07:14:48.906Z,5.12
2023-01-09T07:15:41.351Z,5.14
2023-01-09T07:16:53.863Z,5.14
2023-01-09T07:17:59.079Z,5.13
2023-01-09T07:19:11.835Z,5.15
2023-01-09T07:20:24.554Z,5.17
2023-01-09T07:21:36.967Z,5.16
2023-01-09T07:22:49.556Z,5.15
2023-01-09T07:24:02.130Z,5.13
2023-01-09T07:25:14.592Z,5.14
2023-01-09T07:26:27.134Z,5.14
2023-01-09T07:27:39.562Z,5.15
2023-01-09T07:28:32.123Z,5.16
2023-01-09T07:29:44.530Z,5.17
2023-01-09T07:30:45.833Z,5.16
2023-01-09T07:31:58.285Z,5.18
2023-01-09T07:33:10.705Z,5.19
2023-01-09T07:34:03.290Z,5.20
2023-01-09T07:35:15.935Z,5.21
2023-01-09T07:36:28.514Z,5.21
2023-01-09T07:37:41.069Z,5.22
2023-01-09T07:38:53.781Z,5.23
2023-01-09T07:40:06.398Z,5.24
2023-01-09T07:41:18.845Z,5.24
2023-01-09T07:42:31.246Z,5.24
2023-01-09T07:43:43.792Z,5.25
2023-01-09T07:44:56.385Z,5.27
2023-01-09T07:46:09.012Z,5.29
2023-01-09T07:47:21.620Z,5.30
2023-01-09T07:48:34.192Z,5.32
2023-01-09T07:49:46.644Z,5.34
2023-01-09T07:50:59.289Z,5.35
2023-01-09T07:52:11.727Z,5.37
2023-01-09T07:53:27.049Z,5.39
2023-01-09T07:54:39.578Z,5.40
2023-01-09T07:55:52.358Z,5.41
2023-01-09T07:56:49.764Z,5.41
2023-01-09T07:57:42.416Z,5.42
2023-01-09T07:58:34.775Z,5.42
2023-01-09T07:59:47.230Z,5.43
2023-01-09T08:00:59.766Z,5.43
2023-01-09T08:02:12.314Z,5.43
2023-01-09T08:03:24.765Z,5.45
2023-01-09T08:04:37.035Z,5.46
2023-01-09T08:05:51.461Z,5.48
2023-01-09T08:07:04.466Z,5.49
2023-01-09T08:08:06.726Z,5.50
2023-01-09T08:09:19.244Z,5.53
2023-01-09T08:10:31.750Z,5.55
2023-01-09T08:11:44.319Z,5.58
2023-01-09T08:12:56.805Z,5.60
2023-01-09T08:14:09.440Z,5.62
2023-01-09T08:15:21.784Z,5.65
2023-01-09T08:16:34.299Z,5.67
2023-01-09T08:17:46.840Z,5.68
2023-01-09T08:18:39.227Z,5.69
2023-01-09T08:19:51.622Z,5.71
2023-01-09T08:21:04.174Z,5.72
2023-01-09T08:22:16.600Z,5.73
2023-01-09T08:23:18.069Z,5.75
2023-01-09T08:24:30.512Z,5.76
2023-01-09T08:25:42.951Z,5.77
2023-01-09T08:26:55.548Z,5.78
2023-01-09T08:28:07.919Z,5.80
2023-01-09T08:29:10.491Z,5.81
2023-01-09T08:30:22.866Z,5.82
2023-01-09T08:31:35.511Z,5.85
2023-01-09T08:32:36.962Z,5.86
2023-01-09T08:33:49.620Z,5.87
2023-01-09T08:35:02.195Z,5.89
2023-01-09T08:36:03.571Z,5.90
2023-01-09T08:37:15.942Z,5.91
2023-01-09T08:38:28.443Z,5.92
2023-01-09T08:39:41.068Z,5.94
2023-01-09T08:40:53.685Z,5.95
2023-01-09T08:42:04.361Z,5.97
2023-01-09T08:43:15.325Z,5.98
2023-01-09T08:44:26.092Z,6.00
2023-01-09T08:45:37.385Z,6.01
2023-01-09T08:46:49.042Z,6.03
2023-01-09T08:48:01.943Z,6.05
2023-01-09T08:49:14.729Z,6.07
2023-01-09T08:50:28.053Z,6.09
2023-01-09T08:51:40.963Z,6.10
2023-01-09T08:52:53.364Z,6.12
2023-01-09T08:54:06.154Z,6.13
2023-01-09T08:55:18.569Z,6.14
2023-01-09T08:56:31.072Z,6.15
2023-01-09T08:57:43.466Z,6.17
2023-01-09T08:58:56.048Z,6.18
2023-01-09T09:00:08.757Z,6.19
2023-01-09T09:01:21.267Z,6.20
2023-01-09T09:02:33.843Z,6.22
2023-01-09T09:03:46.572Z,6.23
2023-01-09T09:04:58.992Z,6.24
2023-01-09T09:06:11.548Z,6.27
2023-01-09T09:07:24.183Z,6.28
2023-01-09T09:08:36.644Z,6.31
2023-01-09T09:09:49.035Z,6.33
2023-01-09T09:11:01.781Z,6.34
2023-01-09T09:12:14.198Z,6.36
2023-01-09T09:13:29.403Z,6.37
2023-01-09T09:14:40.550Z,6.40
2023-01-09T09:15:53.042Z,6.41
2023-01-09T09:17:05.725Z,6.43
2023-01-09T09:18:18.541Z,6.44
2023-01-09T09:19:31.224Z,6.44
2023-01-09T09:20:43.704Z,6.46
2023-01-09T09:21:56.148Z,6.48
2023-01-09T09:23:08.652Z,6.49
2023-01-09T09:24:14.080Z,6.51
2023-01-09T09:27:58.364Z,6.56
2023-01-09T09:29:18.658Z,6.59
2023-01-09T09:30:34.831Z,6.62
2023-01-09T09:31:51.331Z,6.65
2023-01-09T09:33:00.572Z,6.67
2023-01-09T09:34:15.709Z,6.71
2023-01-09T09:35:30.156Z,6.73
2023-01-09T09:36:43.011Z,6.76
2023-01-09T09:37:48.858Z,6.78
2023-01-09T09:39:01.377Z,6.79
2023-01-09T09:40:18.743Z,6.81
2023-01-09T09:41:31.504Z,6.82
2023-01-09T09:42:42.243Z,6.83
2023-01-09T09:43:53.265Z,6.84
2023-01-09T09:45:08.524Z,6.85
2023-01-09T09:46:21.081Z,6.85
2023-01-09T09:47:39.357Z,6.85
2023-01-09T09:48:43.840Z,6.85
2023-01-09T09:49:59.645Z,6.85
2023-01-09T09:51:17.709Z,6.85
2023-01-09T09:52:42.127Z,6.85
2023-01-09T09:53:57.904Z,6.85
2023-01-09T09:55:11.532Z,6.85
2023-01-09T09:56:24.442Z,6.85
2023-01-09T09:57:37.184Z,6.85
2023-01-09T09:58:54.727Z,6.85
2023-01-09T10:00:08.706Z,6.85
2023-01-09T10:01:22.014Z,6.86
2023-01-09T10:02:42.036Z,6.86
2023-01-09T10:12:12.435Z,7.05
2023-01-09T10:13:23.337Z,7.09
2023-01-09T10:14:36.206Z,7.14
2023-01-09T10:15:54.767Z,7.21
2023-01-09T10:17:10.309Z,7.38
2023-01-09T10:18:25.689Z,7.98
2023-01-09T10:19:56.601Z,8.71
2023-01-09T10:21:13.282Z,9.15
2023-01-09T10:24:52.140Z,9.54
2023-01-09T10:26:05.162Z,9.49
2023-01-09T10:27:23.544Z,9.68
2023-01-09T10:28:37.097Z,10.10
2023-01-09T10:29:49.857Z,10.55
2023-01-09T10:31:05.093Z,10.90
2023-01-09T10:32:31.431Z,11.29
2023-01-09T10:35:09.015Z,11.40
2023-01-09T10:36:21.627Z,11.51
2023-01-09T10:37:32.492Z,11.58
2023-01-09T10:38:26.288Z,11.56
2023-01-09T10:39:38.675Z,11.69
2023-01-09T10:41:03.289Z,11.87
2023-01-09T10:42:18.997Z,12.01
2023-01-09T10:43:34.911Z,12.16
2023-01-09T10:44:57.164Z,12.18
2023-01-09T10:46:19.826Z,12.22
2023-01-09T10:47:35.231Z,12.22
2023-01-09T10:48:53.942Z,12.32
2023-01-09T10:50:06.752Z,12.43
2023-01-09T10:51:01.809Z,12.39
2023-01-09T10:52:26.295Z,12.31
2023-01-09T10:53:38.974Z,12.22
2023-01-09T10:54:51.439Z,12.20
2023-01-09T10:56:06.026Z,12.23
2023-01-09T10:57:18.527Z,12.26
2023-01-09T10:58:31.208Z,12.34
2023-01-09T10:59:44.388Z,12.38
2023-01-09T11:00:57.019Z,12.51
2023-01-09T11:02:09.399Z,12.54
2023-01-09T11:03:22.027Z,12.47
2023-01-09T11:04:34.707Z,12.51
2023-01-09T11:05:47.324Z,12.59
2023-01-09T11:06:59.631Z,12.83
2023-01-09T11:08:12.368Z,13.01
2023-01-09T11:09:14.650Z,13.18
2023-01-09T11:10:25.717Z,13.31
2023-01-09T11:11:38.465Z,13.42
2023-01-09T11:13:03.006Z,13.43
2023-01-09T11:14:15.601Z,13.39
2023-01-09T11:15:28.149Z,13.21
2023-01-09T11:16:38.987Z,13.04
2023-01-09T11:17:52.435Z,12.85
2023-01-09T11:18:44.780Z,12.55
2023-01-09T11:19:57.220Z,12.27
2023-01-09T11:21:09.653Z,11.82
2023-01-09T11:22:22.206Z,11.40
2023-01-09T11:23:35.013Z,11.03
2023-01-09T11:24:53.373Z,10.68
2023-01-09T11:26:08.799Z,10.35
2023-01-09T11:27:23.254Z,10.06
2023-01-09T11:28:41.700Z,9.82
2023-01-09T11:29:54.348Z,9.58
2023-01-09T11:31:06.472Z,9.38
2023-01-09T11:31:59.980Z,9.21
2023-01-09T11:33:12.559Z,9.08
2023-01-09T11:34:25.020Z,8.94
2023-01-09T11:35:33.724Z,8.80
2023-01-09T11:36:46.882Z,8.67
2023-01-09T11:37:59.328Z,8.55
2023-01-09T11:39:11.963Z,8.44
2023-01-09T11:40:24.447Z,8.33
2023-01-09T11:41:37.053Z,8.24
2023-01-09T11:43:11.027Z,8.14
2023-01-09T11:44:23.788Z,8.04
2023-01-09T11:45:36.100Z,7.96
2023-01-09T11:46:48.664Z,7.87
2023-01-09T11:48:05.517Z,7.80
2023-01-09T11:49:18.121Z,7.96
2023-01-09T11:50:30.850Z,8.52
2023-01-09T11:51:43.493Z,9.19
2023-01-09T11:52:59.050Z,9.81
2023-01-09T11:54:11.851Z,10.35
2023-01-09T11:55:41.784Z,10.76
2023-01-09T11:57:02.971Z,11.21
2023-01-09T11:58:15.621Z,11.48
2023-01-09T11:59:28.268Z,11.71
2023-01-09T12:00:40.669Z,11.85
2023-01-09T12:01:53.309Z,12.05
2023-01-09T12:03:05.822Z,12.20
2023-01-09T12:04:18.324Z,12.34
2023-01-09T12:05:36.792Z,12.40
2023-01-09T12:07:01.661Z,12.41
2023-01-09T12:08:16.899Z,12.48
2023-01-09T12:09:38.969Z,12.50
2023-01-09T12:10:51.625Z,12.51
2023-01-09T12:11:47.271Z,12.63
2023-01-09T12:13:06.031Z,12.70
2023-01-09T12:14:21.177Z,12.78
2023-01-09T12:15:32.089Z,12.84
2023-01-09T12:16:43.381Z,12.89
2023-01-09T12:18:14.555Z,12.94
2023-01-09T12:19:27.102Z,12.98
2023-01-09T12:20:43.621Z,13.01
2023-01-09T12:21:59.390Z,13.02
2023-01-09T12:23:13.140Z,12.98
2023-01-09T12:24:29.631Z,12.94
2023-01-09T12:25:58.708Z,12.83
2023-01-09T12:28:50.635Z,12.75
2023-01-09T12:30:22.885Z,12.66
2023-01-09T12:32:00.293Z,12.21
2023-01-09T12:33:40.427Z,11.57
2023-01-09T12:35:35.844Z,11.01
2023-01-09T12:37:11.616Z,10.44
2023-01-09T12:38:57.719Z,10.32
2023-01-09T12:40:56.592Z,10.84
2023-01-09T12:44:09.374Z,12.01
2023-01-09T12:45:41.549Z,12.23
2023-01-09T12:47:18.584Z,12.57
2023-01-09T12:49:08.262Z,12.64
2023-01-09T12:50:50.656Z,12.07
2023-01-09T12:52:42.655Z,11.43
2023-01-09T12:54:28.470Z,10.83
2023-01-09T12:56:20.625Z,10.66
2023-01-09T12:57:38.686Z,11.58
2023-01-09T12:59:18.570Z,12.23
2023-01-09T13:00:53.534Z,12.53
2023-01-09T13:04:24.858Z,11.98
2023-01-09T13:06:02.278Z,11.27
2023-01-09T13:07:37.684Z,10.79
2023-01-09T13:09:24.592Z,10.39
2023-01-09T13:25:49.608Z,10.69
2023-01-09T13:39:47.219Z,11.33
2023-01-09T13:41:00.938Z,10.97
2023-01-09T13:42:33.281Z,10.64
2023-01-09T13:44:07.431Z,10.32
2023-01-09T13:45:41.628Z,10.22
2023-01-09T13:47:22.413Z,10.72
2023-01-09T13:48:57.940Z,11.31
2023-01-09T13:50:32.822Z,11.81
2023-01-09T13:57:24.451Z,11.44
2023-01-09T14:12:58.976Z,11.37
2023-01-09T14:14:26.308Z,10.90
2023-01-09T14:16:06.271Z,10.52
2023-01-09T14:17:19.580Z,10.18
2023-01-09T14:19:06.381Z,9.95
2023-01-09T14:22:25.373Z,10.80
2023-01-09T14:24:06.107Z,11.57
2023-01-09T14:27:27.208Z,12.26
2023-01-09T14:29:02.365Z,11.79
2023-01-09T14:30:37.803Z,11.27
2023-01-09T14:32:12.321Z,10.80
2023-01-09T14:34:16.760Z,10.40
2023-01-09T14:35:57.475Z,9.96
2023-01-09T14:37:17.375Z,9.94
2023-01-09T14:39:05.416Z,10.50
2023-01-09T14:42:47.683Z,11.88
2023-01-09T14:46:07.382Z,11.66
2023-01-09T14:47:42.473Z,11.12
2023-01-09T14:49:17.122Z,10.65
2023-01-09T14:51:10.482Z,10.26
2023-01-09T14:52:46.303Z,9.88
2023-01-09T14:54:27.982Z,9.86
2023-01-09T14:55:58.099Z,10.43
2023-01-09T14:57:32.661Z,11.00
2023-01-09T14:59:12.676Z,11.58
2023-01-09T15:00:47.252Z,12.08
2023-01-09T15:02:24.407Z,12.24
2023-01-09T15:03:59.946Z,11.82
2023-01-09T15:05:35.100Z,11.26
2023-01-09T15:07:10.649Z,10.76
2023-01-09T15:08:46.340Z,10.32
2023-01-09T15:10:27.953Z,9.98
2023-01-09T15:23:17.757Z,11.99
2023-01-09T15:24:53.300Z,11.52
2023-01-09T15:26:28.768Z,10.95
2023-01-09T15:28:01.751Z,10.49
2023-01-09T15:29:34.702Z,10.12
2023-01-09T15:31:10.620Z,9.79
2023-01-09T15:40:29.660Z,11.48
2023-01-09T15:42:08.401Z,11.50
2023-01-09T15:43:42.846Z,11.41
2023-01-09T15:45:26.395Z,10.97
2023-01-09T15:46:40.115Z,10.41
2023-01-09T15:47:56.923Z,10.04
2023-01-09T15:49:31.075Z,9.71
2023-01-09T15:50:54.192Z,9.54
2023-01-09T15:52:28.509Z,9.90
2023-01-09T15:54:03.522Z,10.39
2023-01-09T15:55:38.926Z,10.78
2023-01-09T15:57:14.316Z,11.14
2023-01-09T15:59:09.280Z,11.44
2023-01-09T16:00:53.771Z,11.60
2023-01-09T16:02:38.501Z,11.50
2023-01-09T16:04:15.451Z,10.94
2023-01-09T16:05:50.650Z,10.36
2023-01-09T16:07:24.807Z,9.85
2023-01-09T16:09:08.179Z,9.42
2023-01-09T16:10:42.389Z,9.34
2023-01-09T16:12:35.030Z,9.89
2023-01-09T16:14:09.254Z,10.46
2023-01-09T16:15:43.029Z,10.81
2023-01-09T16:17:17.388Z,11.08
2023-01-09T16:18:56.265Z,11.19
2023-01-09T16:20:54.663Z,11.27
2023-01-09T16:22:40.797Z,11.34
2023-01-09T16:28:37.410Z,10.06
2023-01-09T16:30:28.029Z,9.55
2023-01-09T16:49:19.780Z,10.90
2023-01-09T16:50:52.688Z,10.43
2023-01-09T16:52:05.068Z,9.92
2023-01-09T16:53:37.918Z,9.57
2023-01-09T16:55:10.923Z,9.38
2023-01-09T16:56:22.894Z,9.75
2023-01-09T16:57:56.897Z,10.07
2023-01-09T16:59:30.124Z,10.27
2023-01-09T17:01:04.124Z,10.26
2023-01-09T17:03:04.303Z,10.18
2023-01-09T17:04:36.826Z,10.03
2023-01-09T17:06:02.664Z,9.96
2023-01-09T17:07:35.520Z,9.97
2023-01-09T17:09:02.976Z,9.91
2023-01-09T17:10:35.757Z,9.82
2023-01-09T17:11:48.327Z,9.73
2023-01-09T17:13:21.379Z,9.58
2023-01-09T17:14:34.490Z,9.41
2023-01-09T17:15:46.961Z,9.23
2023-01-09T17:17:00.230Z,9.12
2023-01-09T17:18:34.626Z,9.20
2023-01-09T17:19:56.406Z,9.08
2023-01-09T17:24:41.265Z,9.53
2023-01-09T17:26:27.354Z,10.30
2023-01-09T17:27:58.409Z,10.78
2023-01-09T17:29:31.847Z,11.23
2023-01-09T17:31:05.888Z,11.55
2023-01-09T17:32:40.190Z,11.60
2023-01-09T17:34:20.369Z,11.82
2023-01-09T17:47:03.841Z,9.88
2023-01-09T17:48:17.158Z,10.00
2023-01-09T17:49:44.843Z,10.17
2023-01-09T17:51:17.900Z,10.23
2023-01-09T17:52:51.172Z,10.13
2023-01-09T17:57:09.937Z,9.87
2023-01-09T18:05:27.298Z,9.33
2023-01-09T18:07:00.421Z,9.20
2023-01-09T18:08:33.562Z,9.00
2023-01-09T18:09:46.128Z,8.83
2023-01-09T18:11:19.196Z,8.68
2023-01-09T18:12:31.631Z,8.53
2023-01-09T18:14:04.273Z,8.37
2023-01-09T18:15:36.880Z,8.30
2023-01-09T18:17:10.379Z,8.18
2023-01-09T18:18:44.587Z,8.07
2023-01-09T18:22:00.247Z,7.92
2023-01-09T18:23:21.976Z,7.87
2023-01-09T18:24:55.106Z,7.83
2023-01-09T18:26:07.526Z,7.78
2023-01-09T18:27:20.338Z,7.75
2023-01-09T18:28:53.741Z,7.75
2023-01-09T18:30:26.553Z,7.76
2023-01-09T18:31:59.865Z,7.73
2023-01-09T18:38:35.389Z,7.62
2023-01-09T18:40:09.050Z,7.60
2023-01-09T18:41:42.778Z,7.55
2023-01-09T18:43:09.432Z,7.49
2023-01-09T18:44:43.867Z,7.44
2023-01-09T18:46:18.334Z,7.40
2023-01-09T18:47:52.869Z,7.33
2023-01-09T18:49:27.296Z,7.28
2023-01-09T18:55:46.852Z,7.27
2023-01-09T18:57:19.796Z,7.25
2023-01-09T18:58:32.171Z,7.25
2023-01-09T19:00:04.923Z,7.27
2023-01-09T19:01:37.659Z,7.28
2023-01-09T19:03:16.021Z,7.28
2023-01-09T19:04:49.484Z,7.27
2023-01-09T19:06:02.330Z,7.28
2023-01-09T19:07:35.581Z,7.33
2023-01-09T19:09:11.653Z,7.40
2023-01-09T19:11:56.179Z,7.41
2023-01-09T19:16:59.740Z,7.40
2023-01-09T19:20:06.111Z,7.37
2023-01-09T19:21:39.667Z,7.36
2023-01-09T19:23:12.611Z,7.38
2023-01-09T19:24:20.373Z,7.37
2023-01-09T19:25:53.979Z,7.37
2023-01-09T19:27:27.478Z,7.38
2023-01-09T19:29:00.447Z,7.39
2023-01-09T19:30:12.871Z,7.37
2023-01-09T19:31:47.903Z,7.34
2023-01-09T19:33:21.075Z,7.35
2023-01-09T19:34:33.495Z,7.34
2023-01-09T19:36:07.430Z,7.32
2023-01-09T19:37:09.456Z,7.33
2023-01-09T19:38:45.950Z,7.34
2023-01-09T19:40:19.130Z,7.32
2023-01-09T19:41:31.750Z,7.31
2023-01-09T19:43:04.887Z,7.30
2023-01-09T19:44:37.821Z,7.29
2023-01-09T19:46:10.976Z,7.28
2023-01-09T19:47:44.054Z,7.26
2023-01-09T19:49:17.488Z,7.23
2023-01-09T19:50:56.221Z,7.22
2023-01-09T19:52:30.729Z,7.21
2023-01-09T19:54:15.592Z,7.21
2023-01-09T19:55:49.913Z,7.18
2023-01-09T19:57:24.314Z,7.16
2023-01-09T19:58:58.329Z,7.13
2023-01-09T20:11:47.220Z,7.12
2023-01-09T20:12:59.780Z,7.11
2023-01-09T20:14:32.712Z,7.10
2023-01-09T20:15:45.177Z,7.09
2023-01-09T20:17:18.265Z,7.08
2023-01-09T20:18:30.515Z,7.05
2023-01-09T20:20:03.472Z,7.03
2023-01-09T20:27:41.708Z,6.82
2023-01-09T20:29:15.916Z,6.79
2023-01-09T20:30:50.899Z,6.77
2023-01-09T20:32:26.240Z,6.79
2023-01-09T20:34:01.652Z,6.79
2023-01-09T20:43:29.238Z,6.85
2023-01-09T20:45:02.218Z,6.88
2023-01-09T20:46:35.106Z,6.86
2023-01-09T20:48:07.994Z,6.85
2023-01-09T20:49:41.149Z,6.84
2023-01-09T20:57:24.097Z,6.79
2023-01-09T20:58:46.667Z,6.76
2023-01-09T21:00:20.917Z,6.74
2023-01-09T21:01:55.416Z,6.72
2023-01-09T21:03:30.987Z,6.72
2023-01-09T21:05:06.561Z,6.74
2023-01-09T21:06:42.250Z,6.74
2023-01-09T21:08:16.931Z,6.72
2023-01-09T21:09:52.268Z,6.72
2023-01-09T21:11:41.222Z,6.74
2023-01-09T21:39:23.117Z,6.80
2023-01-09T21:40:57.425Z,6.80
2023-01-09T21:42:30.043Z,6.80
2023-01-09T21:44:03.042Z,6.81
2023-01-09T21:45:36.009Z,6.82
2023-01-09T21:47:12.894Z,6.83
2023-01-09T21:48:47.118Z,6.85
2023-01-09T21:50:24.229Z,6.87
2023-01-09T21:51:59.215Z,6.87
2023-01-09T21:53:26.555Z,6.85
2023-01-09T21:55:06.477Z,6.83
2023-01-09T21:56:21.779Z,6.82
2023-01-09T22:09:03.302Z,6.74
2023-01-09T22:10:36.097Z,6.74
2023-01-09T22:12:09.002Z,6.74
2023-01-09T22:13:33.570Z,6.73
2023-01-09T22:15:06.923Z,6.72
2023-01-09T22:16:46.542Z,6.72
2023-01-09T22:20:13.979Z,6.67
2023-01-09T22:21:47.045Z,6.65
2023-01-09T22:23:19.934Z,6.62
2023-01-09T22:24:53.280Z,6.59
2023-01-09T22:26:07.260Z,6.56
2023-01-09T22:27:41.598Z,6.52
2023-01-09T22:29:16.471Z,6.48
2023-01-09T22:30:51.618Z,6.45
2023-01-09T22:32:25.160Z,6.44
2023-01-09T22:38:50.123Z,6.48
2023-01-09T22:40:23.096Z,6.48
2023-01-09T22:41:38.847Z,6.49
2023-01-09T22:43:11.626Z,6.51
2023-01-09T22:44:45.391Z,6.52
2023-01-09T22:46:19.543Z,6.52
2023-01-09T22:47:54.230Z,6.51
2023-01-09T22:49:33.541Z,6.51
2023-01-09T22:51:14.792Z,6.49
2023-01-09T22:52:27.268Z,6.46
2023-01-09T22:59:59.211Z,6.40
2023-01-09T23:01:33.392Z,6.39
2023-01-09T23:04:55.177Z,6.42
2023-01-09T23:06:28.115Z,6.40
2023-01-09T23:08:01.320Z,6.36
2023-01-09T23:09:34.246Z,6.33
2023-01-09T23:11:07.212Z,6.30
2023-01-09T23:12:29.742Z,6.27
2023-01-09T23:13:43.058Z,6.24
2023-01-09T23:15:10.717Z,6.22
2023-01-09T23:16:55.131Z,6.19
2023-01-09T23:18:30.701Z,6.17
2023-01-09T23:28:08.819Z,6.33
2023-01-09T23:29:41.824Z,6.34
2023-01-09T23:31:07.429Z,6.34
2023-01-09T23:32:40.736Z,6.36
2023-01-09T23:34:14.795Z,6.37
2023-01-09T23:35:48.240Z,6.38
2023-01-09T23:45:17.402Z,6.49
2023-01-09T23:52:59.476Z,6.57
2023-01-09T23:54:33.829Z,6.57
2023-01-09T23:56:07.894Z,6.57
2023-01-09T23:57:41.840Z,6.57
